Time;durP1;ratioP1;P1;durP2;ratioP2;P2;SDS_P1;SDS_P2;PMS_P1;PMS_P2;Temp;Humidity;BMP_temperature;BMP_pressure;BME280_temperature;BME280_humidity;BME280_pressure;Samples;Min_cycle;Max_cycle;Signal;HPM_P1;HPM_P2
2020/12/26 00:01:54;;;;;;;111.70;58.65;;;7.30;99.90;;;;;;5051691;28;20023;-75
2020/12/26 00:04:20;;;;;;;66.05;38.38;;;7.30;99.90;;;;;;5050530;28;20379;-75
2020/12/26 00:06:52;;;;;;;65.70;38.45;;;7.30;99.90;;;;;;5051340;28;20021;-75
2020/12/26 00:09:18;;;;;;;67.20;38.53;;;7.30;99.90;;;;;;5051213;28;20037;-75
2020/12/26 00:11:43;;;;;;;78.95;44.45;;;7.20;99.90;;;;;;5051331;28;20032;-75
2020/12/26 00:14:10;;;;;;;68.78;40.08;;;7.20;99.90;;;;;;5051380;28;20086;-75
2020/12/26 00:16:36;;;;;;;63.30;36.63;;;7.20;99.90;;;;;;5051303;28;20061;-75
2020/12/26 00:19:01;;;;;;;60.00;34.63;;;7.20;99.90;;;;;;5051260;28;20029;-75
2020/12/26 00:21:27;;;;;;;59.60;35.50;;;7.20;99.90;;;;;;5051231;28;20078;-75
2020/12/26 00:23:53;;;;;;;68.55;37.92;;;7.20;99.90;;;;;;5050940;28;20045;-75
2020/12/26 00:26:19;;;;;;;61.28;35.60;;;7.20;99.90;;;;;;5051196;28;20037;-75
2020/12/26 00:28:45;;;;;;;55.05;33.65;;;7.20;99.90;;;;;;5050939;28;20028;-75
2020/12/26 00:31:18;;;;;;;83.18;44.47;;;7.30;99.90;;;;;;5051032;28;20021;-75
2020/12/26 00:33:44;;;;;;;70.13;40.72;;;7.20;99.90;;;;;;5049980;28;20029;-75
2020/12/26 00:36:10;;;;;;;65.38;38.75;;;7.20;99.90;;;;;;5051255;28;20079;-75
2020/12/26 00:38:36;;;;;;;60.90;36.50;;;7.20;99.90;;;;;;5051122;28;20025;-75
2020/12/26 00:41:02;;;;;;;87.70;46.08;;;7.20;99.90;;;;;;5054602;28;20365;-75
2020/12/26 00:43:27;;;;;;;58.42;35.03;;;7.20;99.90;;;;;;5055183;28;20365;-75
2020/12/26 00:45:53;;;;;;;47.60;30.13;;;7.20;99.90;;;;;;5054991;28;20029;-75
2020/12/26 00:48:19;;;;;;;42.70;27.90;;;7.20;99.90;;;;;;5054501;28;20090;-75
2020/12/26 00:50:45;;;;;;;53.25;34.25;;;7.10;99.90;;;;;;5054869;28;20081;-75
2020/12/26 00:53:10;;;;;;;60.45;38.65;;;7.20;99.90;;;;;;5053501;28;20494;-75
2020/12/26 00:55:36;;;;;;;72.32;38.80;;;7.20;99.90;;;;;;5054789;28;20021;-75
2020/12/26 00:58:02;;;;;;;59.15;37.22;;;7.20;99.90;;;;;;5054948;28;20029;-75
2020/12/26 01:00:28;;;;;;;62.78;39.72;;;7.20;99.90;;;;;;5054954;28;20067;-75
2020/12/26 01:02:54;;;;;;;55.65;36.03;;;7.20;99.90;;;;;;5054984;28;20029;-75
2020/12/26 01:05:19;;;;;;;57.65;33.08;;;7.20;99.90;;;;;;5054725;28;20086;-75
2020/12/26 01:07:45;;;;;;;56.25;34.80;;;7.20;99.90;;;;;;5054759;28;20029;-75
2020/12/26 01:10:11;;;;;;;52.78;34.13;;;7.20;99.90;;;;;;5054568;28;20025;-75
2020/12/26 01:12:37;;;;;;;59.72;36.00;;;7.10;99.90;;;;;;5069967;28;20530;-75
2020/12/26 01:15:04;;;;;;;59.20;37.20;;;7.20;99.90;;;;;;5054658;28;20044;-75
2020/12/26 01:17:30;;;;;;;51.65;34.83;;;7.10;99.90;;;;;;5054521;28;20029;-75
2020/12/26 01:19:56;;;;;;;57.10;36.05;;;7.10;99.90;;;;;;5054697;28;20021;-75
2020/12/26 01:22:22;;;;;;;57.20;36.15;;;7.10;99.90;;;;;;5054168;28;20109;-75
2020/12/26 01:24:47;;;;;;;54.25;34.80;;;7.10;99.90;;;;;;5054584;28;20116;-75
2020/12/26 01:27:13;;;;;;;64.75;35.47;;;7.10;99.90;;;;;;5054186;28;20420;-75
2020/12/26 01:29:39;;;;;;;58.38;35.17;;;7.10;99.90;;;;;;5052845;28;20032;-75
2020/12/26 01:32:05;;;;;;;53.13;33.38;;;7.10;99.90;;;;;;5054439;28;20025;-75
2020/12/26 01:34:31;;;;;;;51.50;32.03;;;7.10;99.90;;;;;;5053943;28;20043;-75
2020/12/26 01:36:56;;;;;;;50.80;30.80;;;7.00;99.90;;;;;;5052849;28;20045;-75
2020/12/26 01:39:23;;;;;;;43.38;29.15;;;7.00;99.90;;;;;;5054070;28;20112;-75
2020/12/26 01:41:55;;;;;;;48.22;28.77;;;7.00;99.90;;;;;;5052668;28;20436;-74
2020/12/26 01:44:22;;;;;;;47.20;31.20;;;7.00;99.90;;;;;;5053843;28;20078;-75
2020/12/26 01:46:52;;;;;;;50.20;32.35;;;7.00;99.90;;;;;;5053800;28;20049;-75
2020/12/26 01:49:21;;;;;;;55.57;33.83;;;7.00;99.90;;;;;;5053889;28;20025;-75
2020/12/26 01:51:48;;;;;;;48.00;31.05;;;7.00;99.90;;;;;;5053326;28;20411;-75
2020/12/26 01:54:14;;;;;;;54.42;33.60;;;7.00;99.90;;;;;;5053781;28;20024;-75
2020/12/26 01:56:40;;;;;;;60.05;37.28;;;7.00;99.90;;;;;;5053618;28;20031;-75
2020/12/26 01:59:07;;;;;;;55.42;36.42;;;7.00;99.90;;;;;;5053673;28;20025;-75
2020/12/26 02:01:36;;;;;;;55.13;36.25;;;6.90;99.90;;;;;;5053562;28;20079;-75
2020/12/26 02:04:02;;;;;;;51.78;34.17;;;7.00;99.90;;;;;;5053716;28;20053;-75
2020/12/26 02:06:37;;;;;;;49.05;32.97;;;7.00;99.90;;;;;;5052533;28;20392;-75
2020/12/26 02:09:05;;;;;;;60.13;32.97;;;6.90;99.90;;;;;;5051838;28;20052;-75
2020/12/26 02:11:31;;;;;;;53.22;33.80;;;6.90;99.90;;;;;;5052964;28;20535;-75
2020/12/26 02:13:57;;;;;;;54.90;34.35;;;6.90;99.90;;;;;;5053665;28;20029;-75
2020/12/26 02:16:23;;;;;;;48.17;32.47;;;6.90;99.90;;;;;;5053622;28;20530;-76
2020/12/26 02:18:49;;;;;;;52.60;33.92;;;6.90;99.90;;;;;;5053905;28;20032;-75
2020/12/26 02:21:15;;;;;;;55.70;34.22;;;6.90;99.90;;;;;;5053546;28;20025;-75
2020/12/26 02:23:45;;;;;;;57.03;36.20;;;6.90;99.90;;;;;;5052090;28;20407;-76
2020/12/26 02:26:12;;;;;;;55.38;34.13;;;6.90;99.90;;;;;;5053990;28;20029;-76
2020/12/26 02:28:38;;;;;;;54.47;34.45;;;6.90;99.90;;;;;;5053870;28;20087;-76
2020/12/26 02:31:05;;;;;;;59.97;36.25;;;6.90;99.90;;;;;;5053408;28;20017;-76
2020/12/26 02:33:34;;;;;;;56.00;37.85;;;7.00;99.90;;;;;;5053934;28;20096;-77
2020/12/26 02:36:03;;;;;;;59.13;35.17;;;6.90;99.90;;;;;;5054372;28;20687;-76
2020/12/26 02:38:29;;;;;;;54.40;34.42;;;6.90;99.90;;;;;;5053670;28;20051;-76
2020/12/26 02:40:55;;;;;;;57.00;35.28;;;6.90;99.90;;;;;;5052905;28;20033;-76
2020/12/26 02:43:26;;;;;;;53.97;34.25;;;6.90;99.90;;;;;;5069751;28;20029;-76
2020/12/26 02:45:54;;;;;;;50.83;32.35;;;6.90;99.90;;;;;;5054400;28;20472;-77
2020/12/26 02:48:20;;;;;;;50.63;32.40;;;6.90;99.90;;;;;;5054362;28;20025;-76
2020/12/26 02:50:45;;;;;;;47.78;31.25;;;6.90;99.90;;;;;;5053474;28;20503;-76
2020/12/26 02:53:11;;;;;;;47.35;31.35;;;6.90;99.90;;;;;;5054385;28;20482;-76
2020/12/26 02:55:37;;;;;;;51.47;32.55;;;6.90;99.90;;;;;;5053047;28;20124;-76
2020/12/26 02:58:03;;;;;;;44.85;31.23;;;6.90;99.90;;;;;;5054127;28;20048;-77
2020/12/26 03:00:29;;;;;;;50.50;31.83;;;6.90;99.90;;;;;;5054081;28;20469;-76
2020/12/26 03:02:55;;;;;;;47.20;30.80;;;6.90;99.90;;;;;;5052226;28;20088;-76
2020/12/26 03:05:21;;;;;;;48.42;32.53;;;6.90;99.90;;;;;;5053675;28;20021;-76
2020/12/26 03:07:47;;;;;;;48.50;31.48;;;6.90;99.90;;;;;;5053801;28;20021;-76
2020/12/26 03:10:13;;;;;;;48.67;30.63;;;6.90;99.90;;;;;;5053540;28;20465;-76
2020/12/26 03:12:39;;;;;;;44.92;29.73;;;6.90;99.90;;;;;;5053467;28;20033;-76
2020/12/26 03:15:06;;;;;;;44.35;29.83;;;6.90;99.90;;;;;;5052001;28;20017;-75
2020/12/26 03:17:32;;;;;;;47.00;30.05;;;6.90;99.90;;;;;;5052936;28;20039;-76
2020/12/26 03:20:01;;;;;;;48.78;32.58;;;6.90;99.90;;;;;;5051686;28;20025;-76
2020/12/26 03:22:30;;;;;;;45.00;29.80;;;6.90;99.90;;;;;;5052652;28;20021;-75
2020/12/26 03:24:56;;;;;;;46.65;29.80;;;6.90;99.90;;;;;;5052790;28;20048;-75
2020/12/26 03:27:22;;;;;;;49.50;32.47;;;6.90;99.90;;;;;;5052922;28;20025;-76
2020/12/26 03:29:49;;;;;;;50.90;32.45;;;6.90;99.90;;;;;;5052797;28;20025;-75
2020/12/26 03:32:15;;;;;;;50.65;32.67;;;6.90;99.90;;;;;;5051295;28;20021;-75
2020/12/26 03:34:40;;;;;;;51.88;33.75;;;6.80;99.90;;;;;;5052543;28;20353;-75
2020/12/26 03:37:06;;;;;;;50.38;31.38;;;6.80;99.90;;;;;;5052348;28;20032;-75
2020/12/26 03:39:35;;;;;;;56.55;36.63;;;6.90;99.90;;;;;;5051844;28;20483;-75
2020/12/26 03:42:05;;;;;;;60.05;37.70;;;6.90;99.90;;;;;;5051783;28;20066;-75
2020/12/26 03:44:32;;;;;;;65.10;39.35;;;6.90;99.90;;;;;;5067490;28;20102;-75
2020/12/26 03:46:58;;;;;;;62.83;38.47;;;6.90;99.90;;;;;;5052276;28;20135;-75
2020/12/26 03:49:25;;;;;;;61.03;37.70;;;6.90;99.90;;;;;;5051691;28;20137;-75
2020/12/26 03:51:51;;;;;;;63.72;39.03;;;6.80;99.90;;;;;;5052286;28;20028;-75
2020/12/26 03:54:17;;;;;;;60.08;38.28;;;6.80;99.90;;;;;;5052468;28;20166;-75
2020/12/26 03:56:43;;;;;;;62.33;38.22;;;6.80;99.90;;;;;;5052231;28;20021;-75
2020/12/26 03:59:09;;;;;;;60.83;40.13;;;6.80;99.90;;;;;;5052269;28;20049;-75
2020/12/26 04:01:36;;;;;;;61.35;39.85;;;6.80;99.90;;;;;;5050724;28;20075;-75
2020/12/26 04:04:02;;;;;;;52.47;34.95;;;6.80;99.90;;;;;;5052681;28;20514;-76
2020/12/26 04:06:28;;;;;;;54.53;36.10;;;6.80;99.90;;;;;;5052829;28;20112;-76
2020/12/26 04:08:53;;;;;;;46.10;31.77;;;6.80;99.90;;;;;;5067835;28;20112;-76
2020/12/26 04:11:19;;;;;;;49.90;33.10;;;6.80;99.90;;;;;;5052749;28;20100;-76
2020/12/26 04:13:45;;;;;;;47.00;32.03;;;6.80;99.90;;;;;;5052588;28;20100;-76
2020/12/26 04:16:12;;;;;;;49.85;30.95;;;6.80;99.90;;;;;;5052803;28;20056;-76
2020/12/26 04:18:38;;;;;;;57.53;32.53;;;6.70;99.90;;;;;;5050407;28;20086;-75
2020/12/26 04:21:04;;;;;;;49.30;30.60;;;6.70;99.90;;;;;;5051813;28;20029;-75
2020/12/26 04:23:30;;;;;;;47.88;31.48;;;6.70;99.90;;;;;;5051495;28;20128;-75
2020/12/26 04:25:56;;;;;;;53.35;33.97;;;6.70;99.90;;;;;;5051822;28;20025;-75
2020/12/26 04:28:21;;;;;;;48.28;32.25;;;6.60;99.90;;;;;;5051721;28;20080;-75
2020/12/26 04:30:47;;;;;;;47.17;31.83;;;6.60;99.90;;;;;;5051665;28;20809;-75
2020/12/26 04:33:13;;;;;;;46.28;29.65;;;6.60;99.90;;;;;;5051947;28;20028;-75
2020/12/26 04:35:39;;;;;;;46.38;31.27;;;6.60;99.90;;;;;;5051689;28;20045;-75
2020/12/26 04:38:05;;;;;;;44.72;29.50;;;6.60;99.90;;;;;;5051633;28;20043;-75
2020/12/26 04:40:30;;;;;;;44.97;30.08;;;6.60;99.90;;;;;;5051740;28;20021;-75
2020/12/26 04:42:57;;;;;;;87.97;30.60;;;6.60;99.90;;;;;;5051894;28;20056;-75
2020/12/26 04:45:23;;;;;;;44.40;30.67;;;6.50;99.90;;;;;;5051066;28;20158;-75
2020/12/26 04:47:55;;;;;;;46.38;30.75;;;6.50;99.90;;;;;;5051540;28;20841;-75
2020/12/26 04:50:29;;;;;;;49.63;31.55;;;6.50;99.90;;;;;;5049960;28;20024;-76
2020/12/26 04:53:03;;;;;;;50.40;32.10;;;6.50;99.90;;;;;;5051657;28;20473;-75
2020/12/26 04:55:36;;;;;;;50.00;32.63;;;6.40;99.90;;;;;;5051807;28;20028;-76
2020/12/26 04:58:08;;;;;;;52.65;32.22;;;6.50;99.90;;;;;;5051644;28;20480;-76
2020/12/26 05:00:35;;;;;;;50.72;33.20;;;6.40;99.90;;;;;;5052067;28;20025;-76
2020/12/26 05:03:05;;;;;;;46.33;29.95;;;6.40;99.90;;;;;;5051964;28;20104;-76
2020/12/26 05:05:42;;;;;;;48.58;30.30;;;6.40;99.90;;;;;;5050463;28;20456;-76
2020/12/26 05:08:10;;;;;;;59.13;35.40;;;6.40;99.90;;;;;;5049991;28;20496;-75
2020/12/26 05:10:36;;;;;;;57.67;35.92;;;6.40;99.90;;;;;;5050019;28;20469;-76
2020/12/26 05:13:07;;;;;;;60.80;38.00;;;6.50;99.90;;;;;;5051229;28;20024;-75
2020/12/26 05:15:34;;;;;;;139.93;68.70;;;6.40;99.90;;;;;;5051210;28;20017;-75
2020/12/26 05:18:01;;;;;;;156.27;77.72;;;6.40;99.90;;;;;;5051053;28;20048;-75
2020/12/26 05:20:28;;;;;;;82.28;50.85;;;6.30;99.90;;;;;;5051041;28;20025;-75
2020/12/26 05:23:11;;;;;;;91.47;47.58;;;6.30;99.90;;;;;;5050614;28;20128;-75
2020/12/26 05:25:44;;;;;;;151.88;64.38;;;6.30;99.90;;;;;;5052128;28;20036;-75
2020/12/26 05:28:21;;;;;;;102.45;45.70;;;6.30;99.90;;;;;;5053471;28;20384;-75
2020/12/26 05:30:49;;;;;;;158.13;62.70;;;6.20;99.90;;;;;;5054598;28;20441;-75
2020/12/26 05:33:15;;;;;;;124.38;65.70;;;6.10;99.90;;;;;;5052992;28;20104;-75
2020/12/26 05:35:42;;;;;;;254.38;96.93;;;6.20;99.90;;;;;;5054487;28;20333;-75
2020/12/26 05:38:15;;;;;;;140.02;55.85;;;6.10;99.90;;;;;;5054752;28;20056;-75
2020/12/26 05:40:46;;;;;;;243.48;83.47;;;6.10;99.90;;;;;;5054268;28;20036;-75
2020/12/26 05:43:14;;;;;;;;;;;6.10;99.90;;;;;;5054780;28;20032;-75
2020/12/26 05:45:42;;;;;;;85.57;37.75;;;6.10;99.90;;;;;;5054294;28;19905;-75
2020/12/26 05:48:14;;;;;;;103.72;41.72;;;6.00;99.90;;;;;;5053903;28;20453;-75
2020/12/26 05:50:40;;;;;;;44.50;26.48;;;6.00;99.90;;;;;;5054395;28;20101;-75
2020/12/26 05:53:08;;;;;;;75.95;36.35;;;6.00;99.90;;;;;;5054248;28;20021;-75
2020/12/26 05:55:38;;;;;;;35.95;22.90;;;6.00;99.90;;;;;;5053844;28;20025;-76
2020/12/26 05:58:05;;;;;;;59.20;34.15;;;6.00;99.90;;;;;;5054110;28;20036;-76
2020/12/26 06:00:42;;;;;;;39.88;25.88;;;6.00;99.90;;;;;;5055108;28;20480;-76
2020/12/26 06:03:21;;;;;;;34.88;23.95;;;6.00;99.90;;;;;;5054045;28;20052;-76
2020/12/26 06:05:48;;;;;;;33.92;22.67;;;5.90;99.90;;;;;;5054358;28;20094;-75
2020/12/26 06:08:16;;;;;;;69.20;35.80;;;5.90;99.90;;;;;;5053896;28;20434;-75
2020/12/26 06:10:51;;;;;;;53.35;29.02;;;5.80;99.90;;;;;;5053823;28;20036;-75
2020/12/26 06:13:19;;;;;;;33.33;22.20;;;5.80;99.90;;;;;;5053908;28;20017;-75
2020/12/26 06:16:02;;;;;;;43.78;25.08;;;5.80;99.90;;;;;;5053907;28;20021;-75
2020/12/26 06:18:31;;;;;;;59.88;29.38;;;5.70;99.90;;;;;;5053943;28;20025;-75
2020/12/26 06:20:57;;;;;;;32.60;20.30;;;5.70;99.90;;;;;;5053669;28;20024;-75
2020/12/26 06:23:24;;;;;;;29.58;18.88;;;5.70;99.90;;;;;;5053772;28;20049;-75
2020/12/26 06:25:52;;;;;;;66.93;33.58;;;5.70;99.90;;;;;;5054487;28;20033;-76
2020/12/26 06:28:18;;;;;;;32.05;20.25;;;5.70;99.90;;;;;;5053430;28;20044;-76
2020/12/26 06:30:44;;;;;;;38.05;22.48;;;5.70;99.90;;;;;;5054627;28;20021;-75
2020/12/26 06:33:10;;;;;;;42.47;24.38;;;5.70;99.90;;;;;;5054269;28;20025;-76
2020/12/26 06:35:44;;;;;;;44.72;24.70;;;5.70;99.90;;;;;;5054323;28;20029;-75
2020/12/26 06:38:23;;;;;;;80.00;38.78;;;5.70;99.90;;;;;;5051958;28;20031;-76
2020/12/26 06:40:50;;;;;;;44.75;26.42;;;5.60;99.90;;;;;;5054541;28;20021;-75
2020/12/26 06:43:45;;;;;;;79.57;37.10;;;5.50;99.90;;;;;;5054371;28;20028;-75
2020/12/26 06:46:14;;;;;;;46.75;29.25;;;5.60;99.90;;;;;;5053205;28;20115;-76
2020/12/26 06:48:41;;;;;;;49.35;29.80;;;5.60;99.90;;;;;;5052936;28;20078;-76
2020/12/26 06:51:26;;;;;;;33.25;20.77;;;5.60;99.90;;;;;;5054175;28;20029;-75
2020/12/26 06:53:53;;;;;;;37.03;23.70;;;5.50;99.90;;;;;;5054422;28;20028;-76
2020/12/26 06:56:36;;;;;;;108.72;52.20;;;5.50;99.90;;;;;;5054411;28;20104;-76
2020/12/26 06:59:06;;;;;;;38.97;25.05;;;5.50;99.90;;;;;;5054232;28;20036;-76
2020/12/26 07:01:33;;;;;;;40.28;24.67;;;5.50;99.90;;;;;;5054381;28;20100;-76
2020/12/26 07:04:14;;;;;;;40.97;25.40;;;5.50;99.90;;;;;;5054159;28;20531;-76
2020/12/26 07:06:47;;;;;;;;;;;5.50;99.90;;;;;;5054956;28;20032;-76
2020/12/26 07:09:14;;;;;;;71.75;34.88;;;5.50;99.90;;;;;;5054030;28;20382;-76
2020/12/26 07:11:51;;;;;;;61.88;31.55;;;5.50;99.90;;;;;;5053996;28;20024;-76
2020/12/26 07:14:38;;;;;;;65.50;35.05;;;5.50;99.90;;;;;;5054090;28;20423;-76
2020/12/26 07:17:27;;;;;;;42.58;25.98;;;5.50;99.90;;;;;;5054187;28;20025;-76
2020/12/26 07:19:58;;;;;;;39.63;24.73;;;5.40;99.90;;;;;;5053986;28;20372;-76
2020/12/26 07:22:24;;;;;;;34.72;21.88;;;5.50;99.90;;;;;;5053553;28;20039;-76
2020/12/26 07:24:52;;;;;;;35.85;23.60;;;5.50;99.90;;;;;;5052540;28;20045;-76
2020/12/26 07:27:28;;;;;;;36.30;25.55;;;5.50;99.90;;;;;;5053723;28;20108;-77
2020/12/26 07:30:07;;;;;;;29.52;20.15;;;5.60;99.90;;;;;;5053727;28;20096;-76
2020/12/26 07:32:40;;;;;;;36.00;22.37;;;5.50;99.90;;;;;;5052538;28;20047;-76
2020/12/26 07:35:07;;;;;;;38.55;25.15;;;5.50;99.90;;;;;;5052282;28;20021;-76
2020/12/26 07:37:33;;;;;;;36.90;23.80;;;5.50;99.90;;;;;;5053610;28;20376;-76
2020/12/26 07:39:59;;;;;;;42.15;25.70;;;5.40;99.90;;;;;;5053742;28;20021;-77
2020/12/26 07:42:25;;;;;;;56.25;32.50;;;5.40;99.90;;;;;;5053395;28;20013;-76
2020/12/26 07:44:52;;;;;;;37.47;24.38;;;5.40;99.90;;;;;;5053604;28;20025;-76
2020/12/26 07:47:18;;;;;;;40.70;25.98;;;5.40;99.90;;;;;;5053246;28;20520;-76
2020/12/26 07:49:59;;;;;;;54.67;32.60;;;5.50;99.90;;;;;;5051799;28;20372;-76
2020/12/26 07:52:24;;;;;;;29.35;19.98;;;5.50;99.90;;;;;;5053257;28;20021;-76
2020/12/26 07:55:00;;;;;;;31.92;20.90;;;5.50;99.90;;;;;;5052010;28;20664;-76
2020/12/26 07:57:27;;;;;;;41.95;27.20;;;5.50;99.90;;;;;;5052853;28;20025;-76
2020/12/26 07:59:53;;;;;;;45.45;29.63;;;5.50;99.90;;;;;;5053317;28;20017;-76
2020/12/26 08:02:19;;;;;;;54.53;30.20;;;5.50;99.90;;;;;;5053319;28;20095;-76
2020/12/26 08:04:47;;;;;;;39.72;23.63;;;5.50;99.90;;;;;;5053230;28;20032;-76
2020/12/26 08:07:14;;;;;;;52.72;31.25;;;5.50;99.90;;;;;;5053193;28;20048;-76
2020/12/26 08:09:51;;;;;;;36.70;26.50;;;5.50;99.90;;;;;;5052871;28;20018;-76
2020/12/26 08:12:18;;;;;;;59.30;32.65;;;5.50;99.90;;;;;;5051874;28;20480;-76
2020/12/26 08:14:44;;;;;;;58.40;37.67;;;5.50;99.90;;;;;;5053095;28;20025;-76
2020/12/26 08:17:11;;;;;;;60.50;41.38;;;5.50;99.90;;;;;;5052954;28;20729;-76
2020/12/26 08:19:40;;;;;;;56.65;32.38;;;5.50;99.90;;;;;;5051906;28;20469;-77
2020/12/26 08:22:06;;;;;;;35.80;23.52;;;5.50;99.90;;;;;;5053042;28;20021;-76
2020/12/26 08:24:32;;;;;;;33.88;20.83;;;5.40;99.90;;;;;;5052533;28;20132;-76
2020/12/26 08:26:57;;;;;;;37.97;24.67;;;5.40;99.90;;;;;;5051938;28;20027;-75
2020/12/26 08:29:29;;;;;;;61.08;35.03;;;5.50;99.90;;;;;;5067005;28;20439;-75
2020/12/26 08:32:09;;;;;;;47.90;29.52;;;5.50;99.90;;;;;;5052364;28;20029;-75
2020/12/26 08:34:55;;;;;;;36.57;24.27;;;5.50;99.90;;;;;;5051875;28;20146;-76
2020/12/26 08:37:29;;;;;;;67.22;36.97;;;5.50;99.90;;;;;;5053045;28;20052;-76
2020/12/26 08:39:59;;;;;;;40.08;23.10;;;5.50;99.90;;;;;;5051504;28;20029;-76
2020/12/26 08:42:27;;;;;;;45.58;26.80;;;5.40;99.90;;;;;;5053146;28;20017;-76
2020/12/26 08:44:53;;;;;;;49.42;29.92;;;5.40;99.90;;;;;;5051766;28;20112;-77
2020/12/26 08:47:33;;;;;;;48.47;30.23;;;5.50;99.90;;;;;;5053236;28;20439;-77
2020/12/26 08:49:59;;;;;;;38.03;22.33;;;5.40;99.90;;;;;;5052992;28;20104;-77
2020/12/26 08:52:26;;;;;;;56.50;32.60;;;5.40;99.90;;;;;;5052987;28;20365;-77
2020/12/26 08:55:05;;;;;;;68.72;36.25;;;5.40;99.90;;;;;;5053160;28;20025;-76
2020/12/26 08:57:31;;;;;;;47.83;27.90;;;5.40;99.90;;;;;;5051358;28;20712;-76
2020/12/26 09:00:20;;;;;;;54.20;32.70;;;5.40;99.90;;;;;;5052826;28;20025;-76
2020/12/26 09:02:46;;;;;;;47.67;29.27;;;5.30;99.90;;;;;;5057172;28;20392;-76
2020/12/26 09:05:22;;;;;;;40.05;23.85;;;5.20;99.90;;;;;;5056684;28;20048;-77
2020/12/26 09:07:59;;;;;;;63.78;34.88;;;5.30;99.90;;;;;;5055177;28;20554;-76
2020/12/26 09:10:25;;;;;;;63.03;33.25;;;5.30;99.90;;;;;;5056535;28;20104;-77
2020/12/26 09:13:03;;;;;;;65.45;34.17;;;5.20;99.90;;;;;;5055873;28;20458;-75
2020/12/26 09:15:47;;;;;;;103.75;49.13;;;5.30;99.90;;;;;;5055899;28;20072;-76
2020/12/26 09:18:18;;;;;;;86.00;40.92;;;5.30;99.90;;;;;;5054136;28;20063;-76
2020/12/26 09:20:47;;;;;;;;;;;5.20;99.90;;;;;;5056170;28;20025;-75
2020/12/26 09:23:13;;;;;;;70.07;33.78;;;5.20;99.90;;;;;;5055252;28;19955;-76
2020/12/26 09:25:39;;;;;;;94.53;45.08;;;5.20;99.90;;;;;;5054989;28;20495;-75
2020/12/26 09:28:05;;;;;;;87.00;42.38;;;5.20;99.90;;;;;;5055046;28;20036;-75
2020/12/26 09:30:31;;;;;;;89.38;43.35;;;5.20;99.90;;;;;;5055062;28;20472;-75
2020/12/26 09:32:56;;;;;;;75.70;37.88;;;5.10;99.90;;;;;;5053795;28;20102;-75
2020/12/26 09:35:23;;;;;;;107.53;50.97;;;5.10;99.90;;;;;;5054668;28;20032;-75
2020/12/26 09:37:53;;;;;;;173.02;74.60;;;5.20;99.90;;;;;;5054923;28;20040;-75
2020/12/26 09:40:19;;;;;;;61.75;33.75;;;5.10;99.90;;;;;;5053508;28;20040;-75
2020/12/26 09:42:51;;;;;;;110.72;53.08;;;5.20;99.90;;;;;;5053778;28;20029;-76
2020/12/26 09:45:17;;;;;;;76.43;44.20;;;5.20;99.90;;;;;;5054446;28;20532;-75
2020/12/26 09:47:43;;;;;;;74.57;44.35;;;5.20;99.90;;;;;;5054758;28;20036;-75
2020/12/26 09:50:09;;;;;;;73.65;43.60;;;5.20;99.90;;;;;;5055424;28;20388;-77
2020/12/26 09:52:35;;;;;;;77.70;45.63;;;5.30;99.90;;;;;;5055361;28;20033;-75
2020/12/26 09:55:00;;;;;;;68.40;41.88;;;5.30;99.90;;;;;;5055049;28;20017;-76
2020/12/26 09:57:28;;;;;;;65.32;40.05;;;5.30;99.90;;;;;;5053632;28;20021;-75
2020/12/26 09:59:54;;;;;;;58.95;33.55;;;5.30;99.90;;;;;;5053478;28;20464;-75
2020/12/26 10:02:21;;;;;;;52.55;32.90;;;5.30;99.90;;;;;;5054573;28;20104;-75
2020/12/26 10:04:47;;;;;;;65.90;35.42;;;5.30;99.90;;;;;;5054783;28;20100;-76
2020/12/26 10:07:12;;;;;;;75.65;43.80;;;5.20;99.90;;;;;;5054560;28;20103;-75
2020/12/26 10:09:38;;;;;;;53.85;31.95;;;5.30;99.90;;;;;;5054357;28;20033;-75
2020/12/26 10:12:04;;;;;;;49.25;28.67;;;5.20;99.90;;;;;;5053026;28;20021;-75
2020/12/26 10:14:30;;;;;;;43.72;29.17;;;5.20;99.90;;;;;;5054476;28;20032;-75
2020/12/26 10:16:56;;;;;;;45.03;28.00;;;5.20;99.90;;;;;;5054646;28;20023;-75
2020/12/26 10:19:21;;;;;;;47.67;31.90;;;5.10;99.90;;;;;;5054609;28;20037;-75
2020/12/26 10:21:53;;;;;;;50.40;32.33;;;5.20;99.90;;;;;;5054726;28;20032;-75
2020/12/26 10:24:19;;;;;;;43.10;29.92;;;5.10;99.90;;;;;;5054268;28;20071;-75
2020/12/26 10:26:45;;;;;;;57.53;36.17;;;5.20;99.90;;;;;;5053244;28;20037;-75
2020/12/26 10:29:11;;;;;;;41.03;27.20;;;5.20;99.90;;;;;;5053019;28;20033;-75
2020/12/26 10:31:37;;;;;;;32.50;20.73;;;5.10;99.90;;;;;;5054338;28;20036;-76
2020/12/26 10:34:02;;;;;;;66.00;35.63;;;5.10;99.90;;;;;;5052827;28;20025;-75
2020/12/26 10:36:28;;;;;;;38.28;23.30;;;5.10;99.90;;;;;;5052842;28;20029;-76
2020/12/26 10:38:54;;;;;;;42.75;26.67;;;5.10;99.90;;;;;;5054269;28;20029;-75
2020/12/26 10:41:21;;;;;;;72.07;38.10;;;5.10;99.90;;;;;;5054550;28;20036;-76
2020/12/26 10:43:47;;;;;;;55.30;32.42;;;5.10;99.90;;;;;;5053358;28;20025;-77
2020/12/26 10:46:13;;;;;;;43.05;25.88;;;5.00;99.90;;;;;;5054554;28;20036;-76
2020/12/26 10:48:40;;;;;;;48.63;29.63;;;5.00;99.90;;;;;;5052952;28;20122;-76
2020/12/26 10:51:06;;;;;;;71.18;38.10;;;5.00;99.90;;;;;;5052841;28;20021;-77
2020/12/26 10:53:32;;;;;;;68.80;36.63;;;5.00;99.90;;;;;;5054145;28;20415;-75
2020/12/26 10:55:58;;;;;;;66.28;36.47;;;5.00;99.90;;;;;;5054054;28;20128;-76
2020/12/26 10:58:23;;;;;;;58.95;35.85;;;5.00;99.90;;;;;;5053667;28;20021;-76
2020/12/26 11:00:49;;;;;;;69.10;40.55;;;5.10;99.90;;;;;;5052790;28;20119;-76
2020/12/26 11:03:15;;;;;;;61.33;37.10;;;5.10;99.90;;;;;;5054137;28;20492;-76
2020/12/26 11:05:41;;;;;;;61.60;36.28;;;5.10;99.90;;;;;;5054104;28;20036;-75
2020/12/26 11:08:06;;;;;;;54.45;33.58;;;5.10;99.90;;;;;;5054445;28;20171;-76
2020/12/26 11:10:32;;;;;;;51.28;32.05;;;5.10;99.90;;;;;;5054103;28;20028;-76
2020/12/26 11:12:58;;;;;;;68.30;38.60;;;5.00;99.90;;;;;;5054316;28;20071;-77
2020/12/26 11:15:24;;;;;;;77.13;44.38;;;5.10;99.90;;;;;;5052801;28;20071;-77
2020/12/26 11:17:50;;;;;;;44.63;28.13;;;5.10;99.90;;;;;;5052847;28;20453;-76
2020/12/26 11:20:15;;;;;;;49.55;30.20;;;5.00;99.90;;;;;;5054102;28;20032;-76
2020/12/26 11:22:41;;;;;;;62.30;38.88;;;4.90;99.90;;;;;;5052317;28;20045;-77
2020/12/26 11:25:08;;;;;;;52.20;31.13;;;4.90;99.90;;;;;;5053611;28;20079;-76
2020/12/26 11:27:34;;;;;;;56.13;33.35;;;4.90;99.90;;;;;;5052906;28;20029;-77
2020/12/26 11:30:00;;;;;;;92.30;53.78;;;4.90;99.90;;;;;;5053221;28;20452;-76
2020/12/26 11:32:26;;;;;;;107.15;52.55;;;4.90;99.90;;;;;;5053847;28;20419;-76
2020/12/26 11:34:52;;;;;;;66.43;41.28;;;4.90;99.90;;;;;;5053743;28;20031;-78
2020/12/26 11:37:18;;;;;;;73.22;39.42;;;4.90;99.90;;;;;;5052541;28;20211;-77
2020/12/26 11:39:44;;;;;;;76.35;41.53;;;4.90;99.90;;;;;;5053767;28;20040;-77
2020/12/26 11:42:10;;;;;;;48.35;28.90;;;4.90;99.90;;;;;;5053686;28;20029;-77
2020/12/26 11:44:35;;;;;;;43.35;27.92;;;4.80;99.90;;;;;;5052491;28;20028;-77
2020/12/26 11:47:02;;;;;;;44.83;27.98;;;4.80;99.90;;;;;;5053699;28;20029;-77
2020/12/26 11:49:28;;;;;;;64.13;36.42;;;4.80;99.90;;;;;;5053074;28;20415;-78
2020/12/26 11:51:54;;;;;;;56.35;32.53;;;4.80;99.90;;;;;;5053701;28;20021;-77
2020/12/26 11:54:22;;;;;;;48.97;31.05;;;4.80;99.90;;;;;;5053715;28;20096;-77
2020/12/26 11:56:52;;;;;;;47.58;30.42;;;4.80;99.90;;;;;;5052908;28;20531;-77
2020/12/26 11:59:18;;;;;;;49.03;31.63;;;4.80;99.90;;;;;;5053124;28;20200;-77
2020/12/26 12:01:44;;;;;;;57.33;34.58;;;4.80;99.90;;;;;;5052497;28;20078;-78
2020/12/26 12:04:10;;;;;;;50.33;32.90;;;4.80;99.90;;;;;;5051806;28;20028;-78
2020/12/26 12:06:36;;;;;;;46.70;29.00;;;4.80;99.90;;;;;;5053140;28;20032;-77
2020/12/26 12:09:02;;;;;;;58.25;34.80;;;4.80;99.90;;;;;;5053304;28;20029;-77
2020/12/26 12:11:28;;;;;;;46.88;29.05;;;4.80;99.90;;;;;;5053245;28;20037;-77
2020/12/26 12:13:54;;;;;;;63.70;35.95;;;4.70;99.90;;;;;;5053316;28;20067;-78
2020/12/26 12:16:20;;;;;;;66.43;39.53;;;4.80;99.90;;;;;;5051948;28;20029;-78
2020/12/26 12:18:46;;;;;;;75.40;41.15;;;4.80;99.90;;;;;;5051942;28;20060;-77
2020/12/26 12:21:12;;;;;;;56.58;33.03;;;4.80;99.90;;;;;;5053448;28;20798;-78
2020/12/26 12:23:37;;;;;;;44.08;28.63;;;4.80;99.90;;;;;;5053429;28;20048;-78
2020/12/26 12:26:03;;;;;;;84.95;47.17;;;4.90;99.90;;;;;;5053627;28;20025;-78
2020/12/26 12:28:29;;;;;;;76.05;44.85;;;4.90;99.90;;;;;;5053104;28;20029;-78
2020/12/26 12:30:55;;;;;;;54.53;35.17;;;4.90;99.90;;;;;;5053264;28;20033;-78
2020/12/26 12:33:21;;;;;;;70.00;42.17;;;4.90;99.90;;;;;;5052894;28;20486;-78
2020/12/26 12:35:46;;;;;;;76.35;44.30;;;5.00;99.90;;;;;;5053991;28;20084;-78
2020/12/26 12:38:13;;;;;;;67.93;40.55;;;5.00;99.90;;;;;;5036160;28;20032;-78
2020/12/26 12:40:38;;;;;;;51.72;35.17;;;5.00;99.90;;;;;;5075437;28;20487;-78
2020/12/26 12:43:04;;;;;;;63.17;39.20;;;5.00;99.90;;;;;;5055941;28;20028;-78